Flight Track Log - Related Links

Times and Time Zones

All times are in EDT time to prevent confusion due to time zone crossing. See the N2180F flight status page for this flight to view local times or setup timezone preferences in your user account.

Time Position Orientation Groundspeed Altitude Reporting Facility
EDT Latitude Longitude Course Direction KTS MPH feet Rate Location/Type
Fri 04:05:04 PM 44.9036 -85.2350 164° South 95 109 5,400  Level Minneapolis Center
Fri 04:06:06 PM 44.8792 -85.2211 158° South 95 109 6,200 677 Climbing Minneapolis Center
Fri 04:07:08 PM 44.8550 -85.2053 155° Southeast 95 109 6,800 677 Climbing Minneapolis Center
Fri 04:08:10 PM 44.8253 -85.1856 155° Southeast 95 109 7,600 672 Climbing Minneapolis Center
Fri 04:09:00 PM 44.7869 -85.1326 165° South  Level FlightAware Approximate
Fri 04:09:13 PM 44.8000 -85.1667 152° Southeast 96 110 8,200  Level Minneapolis Center
Fri 04:10:15 PM 44.7736 -85.1494 155° Southeast 100 115 8,700 435 Climbing Minneapolis Center
Fri 04:11:17 PM 44.7456 -85.1344 159° South 103 119 9,100 145 Climbing Minneapolis Center
Fri 04:12:19 PM 44.7125 -85.1203 163° South 116 133 9,000  Descending Minneapolis Center
Fri 04:13:21 PM 44.6689 -85.1050 166° South 130 150 9,100 48 Climbing Minneapolis Center
Fri 04:14:23 PM 44.6331 -85.0939 168° South 130 150 9,100 -48 Level Minneapolis Center
Fri 04:15:25 PM 44.5969 -85.0825 167° South 131 151 9,000 -48 Descending Minneapolis Center
Fri 04:16:28 PM 44.5614 -85.0717 168° South 131 151 9,000  Level Minneapolis Center
Fri 04:17:30 PM 44.5239 -85.0608 168° South 132 152 9,000  Level Minneapolis Center
Fri 04:18:32 PM 44.4881 -85.0500 168° South 132 152 9,000  Level Minneapolis Center
Fri 04:19:34 PM 44.4456 -85.0378 168° South 132 152 9,000 48 Level Minneapolis Center
Fri 04:20:37 PM 44.4097 -85.0261 167° South 132 152 9,100 48 Climbing Minneapolis Center
Fri 04:21:39 PM 44.3744 -85.0128 165° South 132 152 9,100 -48 Level Minneapolis Center
Fri 04:22:41 PM 44.3389 -85.0031 169° South 132 152 9,000  Descending Minneapolis Center
Fri 04:23:43 PM 44.3031 -84.9936 169° South 131 151 9,100 48 Climbing Minneapolis Center
Fri 04:24:45 PM 44.2681 -84.9850 170° South 131 151 9,100  Level Minneapolis Center
Fri 04:25:47 PM 44.2244 -84.9731 169° South 131 151 9,100  Level Minneapolis Center
Fri 04:26:49 PM 44.1881 -84.9644 170° South 131 151 9,100 -48 Level Minneapolis Center
Fri 04:27:51 PM 44.1522 -84.9567 171° South 131 151 9,000 -48 Descending Minneapolis Center
Fri 04:28:54 PM 44.1156 -84.9472 170° South 131 151 9,000  Level Minneapolis Center
Fri 04:29:56 PM 44.0797 -84.9375 169° South 131 151 9,000  Level Minneapolis Center
Fri 04:30:58 PM 44.0439 -84.9286 170° South 131 151 9,000  Level Minneapolis Center
Fri 04:32:00 PM 44.0042 -84.9178 169° South 131 151 9,000  Level Minneapolis Center
Fri 04:33:02 PM 43.9678 -84.9072 168° South 131 151 9,000  Level Minneapolis Center
Fri 04:34:04 PM 43.9314 -84.8972 169° South 131 151 9,000  Level Minneapolis Center
Fri 04:35:06 PM 43.8883 -84.8847 168° South 132 152 9,000  Level Minneapolis Center
Fri 04:36:05 PM 43.8564 -84.8736 166° South 127 146 9,000  Level Cleveland Center
Fri 04:37:07 PM 43.8183 -84.8619 168° South 129 148 9,000  Level Cleveland Center
Fri 04:38:10 PM 43.7817 -84.8494 166° South 129 148 9,000  Level Cleveland Center
Fri 04:39:12 PM 43.7442 -84.8378 167° South 130 150 9,000  Level Cleveland Center
Fri 04:40:17 PM 43.7119 -84.8292 169° South 131 151 9,000 -142 Level Minneapolis Center
Fri 04:41:19 PM 43.6669 -84.8150 167° South 132 152 8,700 -290 Descending Minneapolis Center
Fri 04:42:21 PM 43.6289 -84.8028 167° South 136 157 8,400 -298 Descending Minneapolis Center
Fri 04:43:20 PM 43.5894 -84.7903 167° South 138 159 8,100 -248 Descending Cleveland Center
Fri 04:44:22 PM 43.5531 -84.7819 171° South 138 159 7,900 -48 Descending Cleveland Center
Fri 04:45:24 PM 43.5172 -84.7733 170° South 127 146 8,000 48 Climbing Cleveland Center
Fri 04:46:27 PM 43.4811 -84.7647 170° South 127 146 8,000  Level Cleveland Center
Fri 04:47:29 PM 43.4447 -84.7536 168° South 127 146 8,000  Level Cleveland Center
Fri 04:48:31 PM 43.4081 -84.7425 168° South 128 147 8,000 -48 Level Cleveland Center
Fri 04:49:33 PM 43.3714 -84.7292 165° South 129 148 7,900 -48 Descending Cleveland Center
Fri 04:50:35 PM 43.3353 -84.7183 168° South 129 148 7,900 48 Level Cleveland Center
Fri 04:51:37 PM 43.2992 -84.7069 167° South 128 147 8,000 48 Climbing Cleveland Center
Fri 04:52:39 PM 43.2636 -84.6956 167° South 128 147 8,000  Level Cleveland Center
Fri 04:53:41 PM 43.2306 -84.6856 168° South 128 147 8,000 -48 Level Cleveland Center
Fri 04:54:44 PM 43.1942 -84.6736 167° South 128 147 7,900  Descending Cleveland Center
Fri 04:55:46 PM 43.1581 -84.6617 166° South 128 147 8,000 97 Climbing Cleveland Center
Fri 04:56:48 PM 43.1222 -84.6536 171° South 128 147 8,100 -48 Climbing Cleveland Center
Fri 04:57:50 PM 43.0844 -84.6436 169° South 130 150 7,900 -97 Descending Cleveland Center
Fri 04:58:52 PM 43.0469 -84.6347 170° South 131 151 7,900 48 Level Cleveland Center
Fri 04:59:54 PM 43.0106 -84.6261 170° South 130 150 8,000 48 Climbing Cleveland Center
Fri 05:00:56 PM 42.9728 -84.6203 174° South 130 150 8,000  Level Cleveland Center
Fri 05:01:58 PM 42.9389 -84.6119 170° South 130 150 8,000  Level Cleveland Center
Fri 05:03:01 PM 42.9008 -84.6058 173° South 132 152 8,000 -48 Level Cleveland Center
Fri 05:04:03 PM 42.8653 -84.5978 171° South 129 148 7,900  Descending Cleveland Center
Fri 05:05:05 PM 42.8281 -84.5858 167° South 131 151 8,000  Climbing Cleveland Center
Fri 05:06:07 PM 42.7908 -84.5747 168° South 131 151 7,900  Descending Cleveland Center
Fri 05:07:09 PM 42.7550 -84.5611 164° South 131 151 8,000 97 Climbing Cleveland Center
Fri 05:08:11 PM 42.7172 -84.5508 169° South 131 151 8,100 48 Climbing Cleveland Center
Fri 05:09:13 PM 42.6806 -84.5403 168° South 131 151 8,100  Level Cleveland Center
Fri 05:10:15 PM 42.6500 -84.5314 168° South 131 151 8,100 -97 Level Cleveland Center
Fri 05:11:17 PM 42.6053 -84.5181 168° South 133 153 7,900 -48 Descending Cleveland Center
Fri 05:12:20 PM 42.5708 -84.5092 169° South 133 153 8,000 96 Climbing Cleveland Center
Fri 05:13:22 PM 42.5356 -84.4994 169° South 132 152 8,100  Climbing Cleveland Center
Fri 05:14:24 PM 42.4997 -84.4897 169° South 132 152 8,000 -48 Descending Cleveland Center
Fri 05:15:26 PM 42.4619 -84.4789 168° South 133 153 8,000  Level Cleveland Center
Fri 05:16:28 PM 42.4253 -84.4681 168° South 134 154 8,000  Level Cleveland Center
Fri 05:17:30 PM 42.3817 -84.4536 166° South 134 154 8,000  Level Cleveland Center
Fri 05:18:32 PM 42.3458 -84.4444 169° South 134 154 8,000  Level Cleveland Center
Fri 05:19:34 PM 42.3100 -84.4336 167° South 134 154 8,000  Level Cleveland Center
Fri 05:20:36 PM 42.2731 -84.4264 172° South 133 153 8,000  Level Cleveland Center
Fri 05:21:38 PM 42.2358 -84.4181 171° South 134 154 8,000  Level Cleveland Center
Fri 05:22:41 PM 42.1992 -84.4111 172° South 135 155 8,000  Level Cleveland Center
Fri 05:23:43 PM 42.1561 -84.3997 169° South 134 154 8,000 48 Level Cleveland Center
Fri 05:24:45 PM 42.1194 -84.3894 168° South 133 153 8,100 48 Climbing Cleveland Center
Fri 05:25:47 PM 42.0839 -84.3786 167° South 132 152 8,100  Level Cleveland Center
Fri 05:26:49 PM 42.0542 -84.3472 142° Southeast 141 162 8,100 48 Level Cleveland Center
Fri 05:27:51 PM 42.0306 -84.3108 131° Southeast 137 158 8,200  Climbing Cleveland Center
Fri 05:28:53 PM 42.0006 -84.2683 134° Southeast 136 157 8,100 -48 Descending Cleveland Center
Fri 05:29:55 PM 41.9722 -84.2369 141° Southeast 135 155 8,100  Level Cleveland Center
Fri 05:30:57 PM 41.9428 -84.2047 141° Southeast 135 155 8,100 -48 Level Cleveland Center
Fri 05:31:59 PM 41.9144 -84.1725 140° Southeast 135 155 8,000 -48 Descending Cleveland Center
Fri 05:33:02 PM 41.8847 -84.1394 140° Southeast 136 157 8,000  Level Cleveland Center
Fri 05:34:04 PM 41.8497 -84.0978 138° Southeast 137 158 8,000 48 Level Cleveland Center
Fri 05:35:06 PM 41.8228 -84.0639 137° Southeast 137 158 8,100 48 Climbing Cleveland Center
Fri 05:36:08 PM 41.7919 -84.0306 141° Southeast 137 158 8,100  Level Cleveland Center
Fri 05:37:10 PM 41.7658 -83.9994 138° Southeast 136 157 8,100  Level Cleveland Center
Fri 05:38:12 PM 41.7347 -83.9661 141° Southeast 139 160 8,100 -97 Level Cleveland Center
Fri 05:39:14 PM 41.7058 -83.9311 138° Southeast 140 161 7,900 -288 Descending Cleveland Center
Fri 05:40:17 PM 41.6697 -83.8883 138° Southeast 142 163 7,500 -384 Descending Cleveland Center
Fri 05:41:19 PM 41.6397 -83.8522 138° Southeast 145 167 7,100 -435 Descending Cleveland Center
Fri 05:42:21 PM 41.6083 -83.8169 140° Southeast 146 168 6,600 -484 Descending Cleveland Center
Fri 05:43:23 PM 41.5772 -83.7803 139° Southeast 146 168 6,100 -484 Descending Cleveland Center
Fri 05:44:25 PM 41.5472 -83.7447 138° Southeast 147 169 5,600 -484 Descending Cleveland Center
Fri 05:45:27 PM 41.5117 -83.7028 139° Southeast 142 163 5,100 -387 Descending Cleveland Center
Fri 05:46:29 PM 41.4825 -83.6669 137° Southeast 144 166 4,800 -387 Descending Cleveland Center
Fri 05:47:31 PM 41.4514 -83.6322 140° Southeast 144 166 4,300 -484 Descending Cleveland Center
Fri 05:48:33 PM 41.4222 -83.5969 138° Southeast 144 166 3,800 -242 Descending Cleveland Center
Fri 05:49:35 PM 41.3950 -83.5675 141° Southeast 133 153 3,800 48 Level Cleveland Center
Fri 05:50:38 PM 41.3708 -83.5381 138° Southeast 123 142 3,900 96 Climbing Cleveland Center
Fri 05:51:40 PM 41.3425 -83.5011 136° Southeast 121 139 4,000 48 Climbing Cleveland Center
Fri 05:52:42 PM 41.3172 -83.4717 139° Southeast 121 139 4,000 -97 Level Cleveland Center
Fri 05:53:44 PM 41.2906 -83.4406 139° Southeast 122 140 3,800 -194 Descending Cleveland Center
Fri 05:54:46 PM 41.2639 -83.4103 140° Southeast 123 142 3,600 -242 Descending Cleveland Center
Fri 05:55:48 PM 41.2361 -83.3781 139° Southeast 128 147 3,300 -290 Descending Cleveland Center
Fri 05:56:50 PM 41.2078 -83.3433 137° Southeast 128 147 3,000 -290 Descending Cleveland Center

Login

Don't have an account? Register now (free) for customized features, flight alerts, and more!